sensor_id;sensor_type;location;lat;lon;timestamp;pressure;altitude;pressure_sealevel;temperature;humidity
48882;BME280;57063;51.406;-2.402;2022-09-03T00:01:22;99778.56;;;20.52;100.00
48882;BME280;57063;51.406;-2.402;2022-09-03T00:03:54;99775.25;;;20.35;100.00
48882;BME280;57063;51.406;-2.402;2022-09-03T00:06:34;99774.94;;;20.30;100.00
48882;BME280;57063;51.406;-2.402;2022-09-03T00:09:08;99773.41;;;20.20;100.00
48882;BME280;57063;51.406;-2.402;2022-09-03T00:11:51;99773.94;;;20.01;100.00
48882;BME280;57063;51.406;-2.402;2022-09-03T00:14:23;99772.75;;;19.80;100.00
48882;BME280;57063;51.406;-2.402;2022-09-03T00:17:01;99781.41;;;19.83;100.00
48882;BME280;57063;51.406;-2.402;2022-09-03T00:19:32;99777.69;;;19.46;100.00
48882;BME280;57063;51.406;-2.402;2022-09-03T00:22:07;99779.63;;;19.52;100.00
48882;BME280;57063;51.406;-2.402;2022-09-03T00:24:38;99781.13;;;19.23;100.00
48882;BME280;57063;51.406;-2.402;2022-09-03T00:27:10;99779.31;;;19.24;100.00
48882;BME280;57063;51.406;-2.402;2022-09-03T00:29:42;99767.09;;;19.37;100.00
48882;BME280;57063;51.406;-2.402;2022-09-03T00:32:15;99767.91;;;19.38;100.00
48882;BME280;57063;51.406;-2.402;2022-09-03T00:34:46;99766.72;;;19.40;100.00
48882;BME280;57063;51.406;-2.402;2022-09-03T00:37:13;99771.06;;;19.41;100.00
48882;BME280;57063;51.406;-2.402;2022-09-03T00:39:38;99767.66;;;19.25;100.00
48882;BME280;57063;51.406;-2.402;2022-09-03T00:58:24;99760.00;;;18.98;100.00
48882;BME280;57063;51.406;-2.402;2022-09-03T01:00:55;99759.69;;;18.93;100.00
48882;BME280;57063;51.406;-2.402;2022-09-03T01:03:46;99771.72;;;18.81;100.00
48882;BME280;57063;51.406;-2.402;2022-09-03T01:06:23;99765.84;;;18.54;100.00
48882;BME280;57063;51.406;-2.402;2022-09-03T01:20:10;99753.06;;;18.89;100.00
48882;BME280;57063;51.406;-2.402;2022-09-03T01:25:35;99752.56;;;18.86;100.00
48882;BME280;57063;51.406;-2.402;2022-09-03T01:28:37;99753.78;;;18.75;100.00
48882;BME280;57063;51.406;-2.402;2022-09-03T01:36:44;99744.19;;;18.57;100.00
48882;BME280;57063;51.406;-2.402;2022-09-03T01:39:22;99754.47;;;18.69;100.00
48882;BME280;57063;51.406;-2.402;2022-09-03T01:47:57;99759.09;;;18.27;100.00
48882;BME280;57063;51.406;-2.402;2022-09-03T01:59:10;99749.97;;;18.21;100.00
48882;BME280;57063;51.406;-2.402;2022-09-03T02:01:52;99750.28;;;18.18;100.00
48882;BME280;57063;51.406;-2.402;2022-09-03T02:04:23;99755.59;;;18.18;100.00
48882;BME280;57063;51.406;-2.402;2022-09-03T02:06:50;99751.59;;;18.22;100.00
48882;BME280;57063;51.406;-2.402;2022-09-03T02:09:16;99755.28;;;18.21;100.00
48882;BME280;57063;51.406;-2.402;2022-09-03T02:11:43;99750.81;;;18.14;100.00
48882;BME280;57063;51.406;-2.402;2022-09-03T02:14:11;99747.66;;;18.10;100.00
48882;BME280;57063;51.406;-2.402;2022-09-03T02:16:37;99750.97;;;18.12;100.00
48882;BME280;57063;51.406;-2.402;2022-09-03T02:19:09;99736.34;;;18.16;100.00
48882;BME280;57063;51.406;-2.402;2022-09-03T02:21:38;99735.84;;;18.21;100.00
48882;BME280;57063;51.406;-2.402;2022-09-03T02:24:06;99740.38;;;17.79;100.00
48882;BME280;57063;51.406;-2.402;2022-09-03T02:26:32;99743.00;;;17.71;100.00
48882;BME280;57063;51.406;-2.402;2022-09-03T02:29:00;99735.38;;;17.76;100.00
48882;BME280;57063;51.406;-2.402;2022-09-03T02:31:26;99734.44;;;17.86;100.00
48882;BME280;57063;51.406;-2.402;2022-09-03T02:33:53;99727.13;;;17.88;100.00
48882;BME280;57063;51.406;-2.402;2022-09-03T02:36:24;99735.09;;;17.88;100.00
48882;BME280;57063;51.406;-2.402;2022-09-03T02:38:51;99740.69;;;17.76;100.00
48882;BME280;57063;51.406;-2.402;2022-09-03T02:41:17;99742.03;;;17.89;100.00
48882;BME280;57063;51.406;-2.402;2022-09-03T02:46:47;99748.50;;;17.94;100.00
48882;BME280;57063;51.406;-2.402;2022-09-03T02:49:14;99750.81;;;18.14;100.00
48882;BME280;57063;51.406;-2.402;2022-09-03T02:51:42;99750.59;;;18.32;100.00
48882;BME280;57063;51.406;-2.402;2022-09-03T02:54:09;99750.03;;;18.53;100.00
48882;BME280;57063;51.406;-2.402;2022-09-03T02:56:36;99741.50;;;18.66;100.00
48882;BME280;57063;51.406;-2.402;2022-09-03T02:59:06;99740.47;;;18.75;100.00
48882;BME280;57063;51.406;-2.402;2022-09-03T03:01:31;99739.91;;;18.96;100.00
48882;BME280;57063;51.406;-2.402;2022-09-03T03:03:58;99738.34;;;19.10;100.00
48882;BME280;57063;51.406;-2.402;2022-09-03T03:06:24;99736.06;;;18.98;100.00
48882;BME280;57063;51.406;-2.402;2022-09-03T03:08:49;99750.63;;;19.11;100.00
48882;BME280;57063;51.406;-2.402;2022-09-03T03:11:17;99748.91;;;19.18;100.00
48882;BME280;57063;51.406;-2.402;2022-09-03T03:13:44;99743.22;;;19.21;100.00
48882;BME280;57063;51.406;-2.402;2022-09-03T03:16:10;99745.81;;;19.29;100.00
48882;BME280;57063;51.406;-2.402;2022-09-03T03:18:35;99738.31;;;19.33;100.00
48882;BME280;57063;51.406;-2.402;2022-09-03T03:21:05;99737.50;;;19.32;100.00
48882;BME280;57063;51.406;-2.402;2022-09-03T03:23:32;99744.59;;;19.17;100.00
48882;BME280;57063;51.406;-2.402;2022-09-03T03:26:01;99739.44;;;19.38;100.00
48882;BME280;57063;51.406;-2.402;2022-09-03T03:28:27;99741.13;;;19.39;100.00
48882;BME280;57063;51.406;-2.402;2022-09-03T03:30:52;99733.41;;;19.45;100.00
48882;BME280;57063;51.406;-2.402;2022-09-03T03:33:18;99736.00;;;19.53;100.00
48882;BME280;57063;51.406;-2.402;2022-09-03T03:35:43;99729.69;;;19.54;100.00
48882;BME280;57063;51.406;-2.402;2022-09-03T03:38:09;99734.47;;;19.58;100.00
48882;BME280;57063;51.406;-2.402;2022-09-03T03:40:37;99734.28;;;19.60;100.00
48882;BME280;57063;51.406;-2.402;2022-09-03T03:43:02;99731.09;;;19.65;100.00
48882;BME280;57063;51.406;-2.402;2022-09-03T03:45:28;99734.38;;;19.67;100.00
48882;BME280;57063;51.406;-2.402;2022-09-03T03:47:57;99730.50;;;19.77;100.00
48882;BME280;57063;51.406;-2.402;2022-09-03T03:50:23;99730.69;;;19.76;100.00
48882;BME280;57063;51.406;-2.402;2022-09-03T03:52:48;99729.31;;;19.80;100.00
48882;BME280;57063;51.406;-2.402;2022-09-03T03:55:14;99734.13;;;19.85;100.00
48882;BME280;57063;51.406;-2.402;2022-09-03T03:57:39;99727.41;;;19.89;100.00
48882;BME280;57063;51.406;-2.402;2022-09-03T04:00:05;99733.56;;;19.89;100.00
48882;BME280;57063;51.406;-2.402;2022-09-03T04:02:30;99730.09;;;19.89;100.00
48882;BME280;57063;51.406;-2.402;2022-09-03T04:04:56;99729.06;;;19.90;100.00
48882;BME280;57063;51.406;-2.402;2022-09-03T04:07:21;99727.97;;;19.99;100.00
48882;BME280;57063;51.406;-2.402;2022-09-03T04:09:46;99732.44;;;19.84;100.00
48882;BME280;57063;51.406;-2.402;2022-09-03T04:12:13;99731.56;;;19.68;100.00
48882;BME280;57063;51.406;-2.402;2022-09-03T04:14:38;99732.72;;;19.74;100.00
48882;BME280;57063;51.406;-2.402;2022-09-03T04:17:04;99719.47;;;19.80;100.00
48882;BME280;57063;51.406;-2.402;2022-09-03T04:19:29;99716.56;;;19.75;100.00
48882;BME280;57063;51.406;-2.402;2022-09-03T04:21:55;99718.56;;;19.73;100.00
48882;BME280;57063;51.406;-2.402;2022-09-03T04:24:20;99717.19;;;19.77;100.00
48882;BME280;57063;51.406;-2.402;2022-09-03T04:26:46;99713.97;;;19.82;100.00
48882;BME280;57063;51.406;-2.402;2022-09-03T04:29:11;99707.19;;;19.79;100.00
48882;BME280;57063;51.406;-2.402;2022-09-03T04:31:37;99703.28;;;19.67;100.00
48882;BME280;57063;51.406;-2.402;2022-09-03T04:34:03;99710.81;;;19.64;100.00
48882;BME280;57063;51.406;-2.402;2022-09-03T04:36:31;99704.22;;;19.74;100.00
48882;BME280;57063;51.406;-2.402;2022-09-03T04:38:58;99695.72;;;19.79;100.00
48882;BME280;57063;51.406;-2.402;2022-09-03T04:41:26;99693.69;;;19.58;100.00
48882;BME280;57063;51.406;-2.402;2022-09-03T04:43:53;99698.94;;;19.66;100.00
48882;BME280;57063;51.406;-2.402;2022-09-03T04:46:20;99691.56;;;19.76;100.00
48882;BME280;57063;51.406;-2.402;2022-09-03T04:48:51;99697.97;;;19.67;100.00
48882;BME280;57063;51.406;-2.402;2022-09-03T04:51:21;99701.69;;;19.58;100.00
48882;BME280;57063;51.406;-2.402;2022-09-03T04:53:53;99690.91;;;19.74;100.00
48882;BME280;57063;51.406;-2.402;2022-09-03T04:56:23;99696.47;;;19.65;100.00
48882;BME280;57063;51.406;-2.402;2022-09-03T04:58:54;99694.88;;;19.78;100.00
48882;BME280;57063;51.406;-2.402;2022-09-03T05:01:22;99701.25;;;19.69;100.00
48882;BME280;57063;51.406;-2.402;2022-09-03T05:03:48;99701.13;;;19.86;100.00
48882;BME280;57063;51.406;-2.402;2022-09-03T05:06:16;99703.16;;;19.84;100.00
48882;BME280;57063;51.406;-2.402;2022-09-03T05:08:48;99697.59;;;19.70;100.00
48882;BME280;57063;51.406;-2.402;2022-09-03T05:11:14;99695.59;;;19.72;100.00
48882;BME280;57063;51.406;-2.402;2022-09-03T05:13:40;99690.56;;;19.77;100.00
48882;BME280;57063;51.406;-2.402;2022-09-03T05:16:08;99698.66;;;19.84;100.00
48882;BME280;57063;51.406;-2.402;2022-09-03T05:18:35;99693.13;;;19.86;100.00
48882;BME280;57063;51.406;-2.402;2022-09-03T05:21:02;99687.47;;;19.66;100.00
48882;BME280;57063;51.406;-2.402;2022-09-03T05:23:28;99693.22;;;19.77;100.00
48882;BME280;57063;51.406;-2.402;2022-09-03T05:26:00;99692.59;;;19.75;100.00
48882;BME280;57063;51.406;-2.402;2022-09-03T05:28:27;99688.09;;;19.91;100.00
48882;BME280;57063;51.406;-2.402;2022-09-03T05:31:04;99690.91;;;19.74;100.00
48882;BME280;57063;51.406;-2.402;2022-09-03T05:33:41;99685.16;;;19.86;100.00
48882;BME280;57063;51.406;-2.402;2022-09-03T05:36:11;99689.66;;;19.85;100.00
48882;BME280;57063;51.406;-2.402;2022-09-03T05:38:38;99692.16;;;19.87;100.00
48882;BME280;57063;51.406;-2.402;2022-09-03T05:41:05;99689.28;;;19.73;100.00
48882;BME280;57063;51.406;-2.402;2022-09-03T05:43:32;99690.38;;;19.79;100.00
48882;BME280;57063;51.406;-2.402;2022-09-03T05:45:58;99694.34;;;19.83;100.00
48882;BME280;57063;51.406;-2.402;2022-09-03T05:48:28;99684.94;;;19.72;100.00
48882;BME280;57063;51.406;-2.402;2022-09-03T05:51:01;99686.94;;;19.70;100.00
48882;BME280;57063;51.406;-2.402;2022-09-03T05:53:28;99688.47;;;19.65;100.00
48882;BME280;57063;51.406;-2.402;2022-09-03T05:55:55;99689.66;;;19.62;100.00
48882;BME280;57063;51.406;-2.402;2022-09-03T05:58:21;99695.00;;;19.62;100.00
48882;BME280;57063;51.406;-2.402;2022-09-03T06:00:46;99698.59;;;19.69;100.00
48882;BME280;57063;51.406;-2.402;2022-09-03T06:03:12;99704.16;;;19.83;100.00
48882;BME280;57063;51.406;-2.402;2022-09-03T06:05:37;99702.34;;;19.83;100.00
48882;BME280;57063;51.406;-2.402;2022-09-03T06:08:02;99702.09;;;19.70;100.00
48882;BME280;57063;51.406;-2.402;2022-09-03T06:10:28;99712.34;;;19.81;100.00
48882;BME280;57063;51.406;-2.402;2022-09-03T06:12:53;99715.53;;;19.76;100.00
48882;BME280;57063;51.406;-2.402;2022-09-03T06:15:19;99716.84;;;19.95;100.00
48882;BME280;57063;51.406;-2.402;2022-09-03T06:17:44;99720.53;;;20.09;100.00
48882;BME280;57063;51.406;-2.402;2022-09-03T06:20:10;99724.88;;;20.10;100.00
48882;BME280;57063;51.406;-2.402;2022-09-03T06:22:35;99717.59;;;20.04;100.00
48882;BME280;57063;51.406;-2.402;2022-09-03T06:25:00;99714.66;;;20.14;100.00
48882;BME280;57063;51.406;-2.402;2022-09-03T06:27:27;99706.56;;;20.37;100.00
48882;BME280;57063;51.406;-2.402;2022-09-03T06:29:53;99723.03;;;20.26;100.00
48882;BME280;57063;51.406;-2.402;2022-09-03T06:32:19;99720.09;;;20.35;100.00
48882;BME280;57063;51.406;-2.402;2022-09-03T06:34:44;99726.16;;;20.44;100.00
48882;BME280;57063;51.406;-2.402;2022-09-03T06:37:09;99720.97;;;20.57;100.00
48882;BME280;57063;51.406;-2.402;2022-09-03T06:39:35;99723.59;;;20.66;100.00
48882;BME280;57063;51.406;-2.402;2022-09-03T06:42:00;99718.31;;;20.72;100.00
48882;BME280;57063;51.406;-2.402;2022-09-03T06:44:25;99726.63;;;20.77;100.00
48882;BME280;57063;51.406;-2.402;2022-09-03T06:46:51;99725.00;;;20.83;100.00
48882;BME280;57063;51.406;-2.402;2022-09-03T06:49:18;99728.81;;;20.74;100.00
48882;BME280;57063;51.406;-2.402;2022-09-03T06:51:43;99730.81;;;20.87;100.00
48882;BME280;57063;51.406;-2.402;2022-09-03T06:54:10;99727.59;;;20.91;100.00
48882;BME280;57063;51.406;-2.402;2022-09-03T06:56:37;99729.63;;;20.89;100.00
48882;BME280;57063;51.406;-2.402;2022-09-03T06:59:08;99728.31;;;20.85;100.00
48882;BME280;57063;51.406;-2.402;2022-09-03T07:01:34;99722.31;;;20.98;100.00
48882;BME280;57063;51.406;-2.402;2022-09-03T07:04:04;99729.28;;;20.99;100.00
48882;BME280;57063;51.406;-2.402;2022-09-03T07:06:31;99730.66;;;21.31;100.00
48882;BME280;57063;51.406;-2.402;2022-09-03T07:08:58;99733.44;;;21.66;100.00
48882;BME280;57063;51.406;-2.402;2022-09-03T07:11:27;99731.75;;;21.80;100.00
48882;BME280;57063;51.406;-2.402;2022-09-03T07:13:54;99734.31;;;21.95;100.00
48882;BME280;57063;51.406;-2.402;2022-09-03T07:16:21;99734.63;;;21.57;100.00
48882;BME280;57063;51.406;-2.402;2022-09-03T07:18:47;99731.19;;;21.63;100.00
48882;BME280;57063;51.406;-2.402;2022-09-03T07:21:20;99736.84;;;21.53;100.00
48882;BME280;57063;51.406;-2.402;2022-09-03T07:23:46;99745.44;;;21.49;100.00
48882;BME280;57063;51.406;-2.402;2022-09-03T07:26:15;99748.44;;;21.24;100.00
48882;BME280;57063;51.406;-2.402;2022-09-03T07:28:42;99754.81;;;21.23;100.00
48882;BME280;57063;51.406;-2.402;2022-09-03T07:31:20;99757.47;;;21.02;100.00
48882;BME280;57063;51.406;-2.402;2022-09-03T07:33:53;99758.41;;;20.79;100.00
48882;BME280;57063;51.406;-2.402;2022-09-03T07:36:20;99760.78;;;20.89;100.00
48882;BME280;57063;51.406;-2.402;2022-09-03T07:38:46;99761.41;;;21.06;100.00
48882;BME280;57063;51.406;-2.402;2022-09-03T07:41:13;99760.94;;;21.02;100.00
48882;BME280;57063;51.406;-2.402;2022-09-03T07:43:44;99760.44;;;21.50;100.00
48882;BME280;57063;51.406;-2.402;2022-09-03T07:46:21;99753.66;;;21.47;100.00
48882;BME280;57063;51.406;-2.402;2022-09-03T07:48:52;99759.25;;;21.16;100.00
48882;BME280;57063;51.406;-2.402;2022-09-03T07:51:19;99762.88;;;21.30;100.00
48882;BME280;57063;51.406;-2.402;2022-09-03T07:53:47;99758.75;;;21.27;100.00
48882;BME280;57063;51.406;-2.402;2022-09-03T07:56:13;99755.09;;;21.50;100.00
48882;BME280;57063;51.406;-2.402;2022-09-03T07:58:40;99766.59;;;21.29;100.00
48882;BME280;57063;51.406;-2.402;2022-09-03T08:01:11;99763.41;;;21.83;100.00
48882;BME280;57063;51.406;-2.402;2022-09-03T08:03:37;99757.72;;;21.65;100.00
48882;BME280;57063;51.406;-2.402;2022-09-03T08:06:05;99761.28;;;22.00;100.00
48882;BME280;57063;51.406;-2.402;2022-09-03T08:08:31;99751.00;;;21.75;100.00
48882;BME280;57063;51.406;-2.402;2022-09-03T08:13:32;99736.59;;;22.26;100.00
48882;BME280;57063;51.406;-2.402;2022-09-03T08:15:58;99749.44;;;22.44;99.46
48882;BME280;57063;51.406;-2.402;2022-09-03T08:18:25;99763.81;;;22.85;98.05
48882;BME280;57063;51.406;-2.402;2022-09-03T08:20:51;99760.69;;;22.74;97.69
48882;BME280;57063;51.406;-2.402;2022-09-03T08:23:16;99763.34;;;23.16;95.74
48882;BME280;57063;51.406;-2.402;2022-09-03T08:25:42;99759.13;;;22.87;96.68
48882;BME280;57063;51.406;-2.402;2022-09-03T08:28:08;99757.72;;;22.97;96.85
48882;BME280;57063;51.406;-2.402;2022-09-03T08:30:35;99760.03;;;23.14;95.67
48882;BME280;57063;51.406;-2.402;2022-09-03T08:33:01;99764.91;;;24.05;91.85
48882;BME280;57063;51.406;-2.402;2022-09-03T08:35:29;99762.19;;;23.65;93.13
48882;BME280;57063;51.406;-2.402;2022-09-03T08:37:56;99770.03;;;24.13;90.91
48882;BME280;57063;51.406;-2.402;2022-09-03T08:40:21;99775.31;;;24.67;87.96
48882;BME280;57063;51.406;-2.402;2022-09-03T08:43:06;99767.66;;;24.64;87.05
48882;BME280;57063;51.406;-2.402;2022-09-03T08:45:35;99773.19;;;24.82;87.18
48882;BME280;57063;51.406;-2.402;2022-09-03T08:48:20;99771.22;;;24.58;87.63
48882;BME280;57063;51.406;-2.402;2022-09-03T08:50:50;99767.50;;;24.45;87.29
48882;BME280;57063;51.406;-2.402;2022-09-03T08:53:43;99776.97;;;24.54;87.51
48882;BME280;57063;51.406;-2.402;2022-09-03T08:56:12;99772.47;;;24.28;88.62
48882;BME280;57063;51.406;-2.402;2022-09-03T08:58:39;99783.84;;;24.10;89.37
48882;BME280;57063;51.406;-2.402;2022-09-03T09:09:34;99783.66;;;23.79;92.19
48882;BME280;57063;51.406;-2.402;2022-09-03T09:15:11;99785.69;;;23.76;93.42
48882;BME280;57063;51.406;-2.402;2022-09-03T09:17:48;99798.47;;;23.61;92.53
48882;BME280;57063;51.406;-2.402;2022-09-03T09:23:18;99792.75;;;23.78;92.74
48882;BME280;57063;51.406;-2.402;2022-09-03T09:25:48;99789.88;;;23.86;92.31
48882;BME280;57063;51.406;-2.402;2022-09-03T09:28:19;99785.06;;;23.61;91.77
48882;BME280;57063;51.406;-2.402;2022-09-03T09:30:47;99794.91;;;23.34;93.19
48882;BME280;57063;51.406;-2.402;2022-09-03T09:33:14;99797.38;;;23.35;93.10
48882;BME280;57063;51.406;-2.402;2022-09-03T09:35:39;99783.56;;;23.19;92.70
48882;BME280;57063;51.406;-2.402;2022-09-03T09:38:07;99798.81;;;23.31;92.59
48882;BME280;57063;51.406;-2.402;2022-09-03T09:40:34;99799.91;;;22.89;94.25
48882;BME280;57063;51.406;-2.402;2022-09-03T09:43:14;99788.53;;;23.42;92.34
48882;BME280;57063;51.406;-2.402;2022-09-03T09:45:45;99796.38;;;23.50;92.21
48882;BME280;57063;51.406;-2.402;2022-09-03T09:48:16;99785.34;;;23.80;91.14
48882;BME280;57063;51.406;-2.402;2022-09-03T09:50:45;99792.50;;;24.39;86.84
48882;BME280;57063;51.406;-2.402;2022-09-03T09:53:11;99790.88;;;24.05;88.03
48882;BME280;57063;51.406;-2.402;2022-09-03T09:55:55;99791.91;;;24.10;88.47
48882;BME280;57063;51.406;-2.402;2022-09-03T09:58:26;99779.69;;;24.41;87.90
48882;BME280;57063;51.406;-2.402;2022-09-03T10:01:10;99780.16;;;24.97;85.26
48882;BME280;57063;51.406;-2.402;2022-09-03T10:03:55;99783.84;;;24.24;86.42
48882;BME280;57063;51.406;-2.402;2022-09-03T10:06:32;99786.13;;;24.00;88.19
48882;BME280;57063;51.406;-2.402;2022-09-03T10:09:18;99781.16;;;24.37;86.24
48882;BME280;57063;51.406;-2.402;2022-09-03T10:11:48;99781.09;;;25.47;83.65
48882;BME280;57063;51.406;-2.402;2022-09-03T10:14:27;99778.22;;;25.04;82.74
48882;BME280;57063;51.406;-2.402;2022-09-03T10:17:49;99773.06;;;25.09;81.30
48882;BME280;57063;51.406;-2.402;2022-09-03T10:23:16;99766.19;;;25.26;81.57
48882;BME280;57063;51.406;-2.402;2022-09-03T10:28:24;99765.75;;;24.84;82.54
48882;BME280;57063;51.406;-2.402;2022-09-03T10:36:44;99767.16;;;25.89;79.05
48882;BME280;57063;51.406;-2.402;2022-09-03T10:39:20;99769.72;;;25.52;78.60
48882;BME280;57063;51.406;-2.402;2022-09-03T10:52:40;99762.72;;;26.63;70.83
48882;BME280;57063;51.406;-2.402;2022-09-03T11:00:51;99754.69;;;27.78;63.13
48882;BME280;57063;51.406;-2.402;2022-09-03T11:11:20;99756.31;;;28.61;57.41
48882;BME280;57063;51.406;-2.402;2022-09-03T11:13:51;99750.59;;;28.46;58.74
48882;BME280;57063;51.406;-2.402;2022-09-03T11:16:26;99759.22;;;27.42;61.65
48882;BME280;57063;51.406;-2.402;2022-09-03T11:19:01;99752.81;;;27.66;61.37
48882;BME280;57063;51.406;-2.402;2022-09-03T11:21:30;99756.44;;;27.60;58.68
48882;BME280;57063;51.406;-2.402;2022-09-03T11:26:38;99762.91;;;26.99;61.33
48882;BME280;57063;51.406;-2.402;2022-09-03T11:36:50;99763.22;;;26.54;63.68
48882;BME280;57063;51.406;-2.402;2022-09-03T11:39:34;99757.50;;;25.81;66.51
48882;BME280;57063;51.406;-2.402;2022-09-03T11:42:11;99768.41;;;25.93;65.98
48882;BME280;57063;51.406;-2.402;2022-09-03T11:44:42;99758.94;;;25.84;66.90
48882;BME280;57063;51.406;-2.402;2022-09-03T11:47:37;99761.28;;;25.99;66.50
48882;BME280;57063;51.406;-2.402;2022-09-03T11:50:18;99767.31;;;26.01;66.84
48882;BME280;57063;51.406;-2.402;2022-09-03T11:52:45;99763.38;;;25.97;66.56
48882;BME280;57063;51.406;-2.402;2022-09-03T11:55:11;99763.34;;;26.22;66.55
48882;BME280;57063;51.406;-2.402;2022-09-03T11:57:41;99750.03;;;26.08;66.90
48882;BME280;57063;51.406;-2.402;2022-09-03T12:00:12;99769.03;;;26.32;65.62
48882;BME280;57063;51.406;-2.402;2022-09-03T12:02:44;99761.19;;;26.12;65.77
48882;BME280;57063;51.406;-2.402;2022-09-03T12:10:54;99762.31;;;26.41;64.12
48882;BME280;57063;51.406;-2.402;2022-09-03T12:16:12;99773.84;;;26.85;62.59
48882;BME280;57063;51.406;-2.402;2022-09-03T12:18:42;99773.84;;;27.04;61.58
48882;BME280;57063;51.406;-2.402;2022-09-03T12:21:10;99763.53;;;26.64;61.60
48882;BME280;57063;51.406;-2.402;2022-09-03T12:23:42;99767.72;;;26.41;62.23
48882;BME280;57063;51.406;-2.402;2022-09-03T12:26:12;99764.28;;;26.71;61.74
48882;BME280;57063;51.406;-2.402;2022-09-03T12:28:40;99766.28;;;26.57;62.77
48882;BME280;57063;51.406;-2.402;2022-09-03T12:31:09;99757.53;;;27.29;59.96
48882;BME280;57063;51.406;-2.402;2022-09-03T12:33:44;99769.94;;;27.00;60.05
48882;BME280;57063;51.406;-2.402;2022-09-03T12:36:09;99763.94;;;27.58;58.82
48882;BME280;57063;51.406;-2.402;2022-09-03T12:38:35;99765.75;;;26.85;59.01
48882;BME280;57063;51.406;-2.402;2022-09-03T12:41:00;99765.78;;;26.48;59.73
48882;BME280;57063;51.406;-2.402;2022-09-03T12:43:27;99778.94;;;26.57;59.94
48882;BME280;57063;51.406;-2.402;2022-09-03T12:45:53;99784.28;;;26.38;60.09
48882;BME280;57063;51.406;-2.402;2022-09-03T12:48:20;99784.84;;;26.03;61.30
48882;BME280;57063;51.406;-2.402;2022-09-03T12:50:48;99782.81;;;25.99;60.61
48882;BME280;57063;51.406;-2.402;2022-09-03T12:53:25;99782.19;;;26.22;60.04
48882;BME280;57063;51.406;-2.402;2022-09-03T12:55:55;99784.72;;;26.60;58.89
48882;BME280;57063;51.406;-2.402;2022-09-03T12:58:57;99771.78;;;27.48;56.30
48882;BME280;57063;51.406;-2.402;2022-09-03T13:01:32;99769.88;;;28.26;54.54
48882;BME280;57063;51.406;-2.402;2022-09-03T13:04:10;99768.69;;;27.33;55.46
48882;BME280;57063;51.406;-2.402;2022-09-03T13:06:55;99766.13;;;28.15;53.45
48882;BME280;57063;51.406;-2.402;2022-09-03T13:09:25;99753.69;;;28.26;52.04
48882;BME280;57063;51.406;-2.402;2022-09-03T13:11:56;99770.28;;;28.70;50.19
48882;BME280;57063;51.406;-2.402;2022-09-03T13:14:24;99773.19;;;28.80;49.40
48882;BME280;57063;51.406;-2.402;2022-09-03T13:17:08;99772.22;;;28.11;50.40
48882;BME280;57063;51.406;-2.402;2022-09-03T13:19:46;99779.91;;;27.72;51.00
48882;BME280;57063;51.406;-2.402;2022-09-03T13:22:33;99787.94;;;27.48;51.30
48882;BME280;57063;51.406;-2.402;2022-09-03T13:25:15;99781.44;;;27.07;52.88
48882;BME280;57063;51.406;-2.402;2022-09-03T13:30:56;99777.34;;;27.77;50.24
48882;BME280;57063;51.406;-2.402;2022-09-03T13:33:40;99776.00;;;26.95;51.74
48882;BME280;57063;51.406;-2.402;2022-09-03T13:36:18;99774.34;;;27.55;50.69
48882;BME280;57063;51.406;-2.402;2022-09-03T13:41:40;99783.69;;;27.10;51.31
48882;BME280;57063;51.406;-2.402;2022-09-03T13:44:16;99778.00;;;27.60;50.57
48882;BME280;57063;51.406;-2.402;2022-09-03T13:46:54;99785.22;;;28.37;49.05
48882;BME280;57063;51.406;-2.402;2022-09-03T13:49:33;99788.50;;;27.92;48.93
48882;BME280;57063;51.406;-2.402;2022-09-03T13:52:29;99800.19;;;26.83;50.33
48882;BME280;57063;51.406;-2.402;2022-09-03T13:55:00;99789.53;;;26.33;51.44
48882;BME280;57063;51.406;-2.402;2022-09-03T13:57:39;99785.63;;;26.73;52.14
48882;BME280;57063;51.406;-2.402;2022-09-03T14:00:12;99784.19;;;26.88;52.77
48882;BME280;57063;51.406;-2.402;2022-09-03T14:02:57;99802.41;;;26.31;52.83
48882;BME280;57063;51.406;-2.402;2022-09-03T14:06:00;99798.19;;;26.17;53.58
48882;BME280;57063;51.406;-2.402;2022-09-03T14:16:55;99807.47;;;25.96;54.03
48882;BME280;57063;51.406;-2.402;2022-09-03T14:22:33;99800.19;;;26.03;53.81
48882;BME280;57063;51.406;-2.402;2022-09-03T14:25:11;99800.41;;;25.69;54.88
48882;BME280;57063;51.406;-2.402;2022-09-03T14:27:39;99799.16;;;25.72;54.65
48882;BME280;57063;51.406;-2.402;2022-09-03T14:30:51;99807.75;;;25.81;55.29
48882;BME280;57063;51.406;-2.402;2022-09-03T14:35:34;99806.88;;;25.23;55.43
48882;BME280;57063;51.406;-2.402;2022-09-03T14:38:39;99806.25;;;25.21;55.58
48882;BME280;57063;51.406;-2.402;2022-09-03T14:44:13;99809.31;;;24.86;56.69
48882;BME280;57063;51.406;-2.402;2022-09-03T14:47:04;99817.69;;;25.10;56.99
48882;BME280;57063;51.406;-2.402;2022-09-03T14:57:43;99810.16;;;24.80;56.94
48882;BME280;57063;51.406;-2.402;2022-09-03T15:00:30;99813.13;;;24.45;58.15
48882;BME280;57063;51.406;-2.402;2022-09-03T15:06:10;99819.53;;;24.24;59.73
48882;BME280;57063;51.406;-2.402;2022-09-03T15:08:53;99827.59;;;24.18;59.97
48882;BME280;57063;51.406;-2.402;2022-09-03T15:11:26;99827.78;;;24.23;60.36
48882;BME280;57063;51.406;-2.402;2022-09-03T15:14:09;99837.09;;;23.93;61.19
48882;BME280;57063;51.406;-2.402;2022-09-03T15:19:54;99831.94;;;24.25;60.71
48882;BME280;57063;51.406;-2.402;2022-09-03T15:22:33;99839.38;;;24.03;60.63
48882;BME280;57063;51.406;-2.402;2022-09-03T15:30:46;99838.66;;;23.54;59.59
48882;BME280;57063;51.406;-2.402;2022-09-03T15:33:38;99838.03;;;23.59;59.29
48882;BME280;57063;51.406;-2.402;2022-09-03T15:43:59;99855.84;;;23.80;52.21
48882;BME280;57063;51.406;-2.402;2022-09-03T15:52:09;99863.63;;;23.68;54.63
48882;BME280;57063;51.406;-2.402;2022-09-03T15:54:47;99861.28;;;23.39;54.82
48882;BME280;57063;51.406;-2.402;2022-09-03T15:59:53;99857.00;;;23.58;54.87
48882;BME280;57063;51.406;-2.402;2022-09-03T16:03:09;99869.81;;;23.75;55.02
48882;BME280;57063;51.406;-2.402;2022-09-03T16:05:56;99871.03;;;23.66;55.24
48882;BME280;57063;51.406;-2.402;2022-09-03T16:11:10;99881.28;;;23.49;55.49
48882;BME280;57063;51.406;-2.402;2022-09-03T16:14:16;99879.19;;;23.31;56.00